createdAt,value
2018-12-05T00:01:20.960Z,110.70
2018-12-05T00:04:25.766Z,107.17
2018-12-05T00:07:30.379Z,146.00
2018-12-05T00:10:34.933Z,136.00
2018-12-05T00:13:39.437Z,127.33
2018-12-05T00:16:44.011Z,128.77
2018-12-05T00:19:48.532Z,122.63
2018-12-05T00:22:53.044Z,122.53
2018-12-05T00:25:57.676Z,115.00
2018-12-05T00:29:02.201Z,136.60
2018-12-05T00:32:06.756Z,132.13
2018-12-05T00:35:11.282Z,137.13
2018-12-05T00:38:22.206Z,116.57
2018-12-05T00:41:26.816Z,125.13
2018-12-05T00:44:31.397Z,132.43
2018-12-05T00:47:35.980Z,111.17
2018-12-05T00:50:40.510Z,121.37
2018-12-05T00:53:45.053Z,130.37
2018-12-05T00:56:49.627Z,119.43
2018-12-05T00:59:54.140Z,119.90
2018-12-05T01:02:58.697Z,111.43
2018-12-05T01:06:03.381Z,111.73
2018-12-05T01:09:13.078Z,112.30
2018-12-05T01:12:17.789Z,139.73
2018-12-05T01:15:22.801Z,131.67
2018-12-05T01:18:27.483Z,119.47
2018-12-05T01:21:32.272Z,111.43
2018-12-05T01:24:37.076Z,103.70
2018-12-05T01:27:41.740Z,110.53
2018-12-05T01:30:46.399Z,108.23
2018-12-05T01:33:52.066Z,109.13
2018-12-05T01:36:56.636Z,119.50
2018-12-05T01:40:01.141Z,142.87
2018-12-05T01:43:05.783Z,129.70
2018-12-05T01:46:10.288Z,124.13
2018-12-05T01:49:14.880Z,194.07
2018-12-05T01:52:19.469Z,188.40
2018-12-05T01:55:24.009Z,148.47
2018-12-05T01:58:28.594Z,113.07
2018-12-05T02:01:33.140Z,116.83
2018-12-05T02:04:37.650Z,116.43
2018-12-05T02:07:42.185Z,107.70
2018-12-05T02:10:46.733Z,111.53
2018-12-05T02:13:51.250Z,120.40
2018-12-05T02:16:55.753Z,116.50
2018-12-05T02:20:00.268Z,109.13
2018-12-05T02:23:04.805Z,116.73
2018-12-05T02:26:09.427Z,112.17
2018-12-05T02:29:13.930Z,119.07
2018-12-05T02:32:19.676Z,116.17
2018-12-05T02:35:24.189Z,116.87
2018-12-05T02:38:28.802Z,113.57
2018-12-05T02:41:33.289Z,122.13
2018-12-05T02:44:37.846Z,119.03
2018-12-05T02:47:42.425Z,139.70
2018-12-05T02:50:47.016Z,130.13
2018-12-05T02:53:51.594Z,123.67
2018-12-05T02:56:56.194Z,112.60
2018-12-05T03:00:00.713Z,113.53
2018-12-05T03:03:07.344Z,124.50
2018-12-05T03:06:11.913Z,119.70
2018-12-05T03:09:16.507Z,120.20
2018-12-05T03:12:21.031Z,119.33
2018-12-05T03:15:25.589Z,118.67
2018-12-05T03:18:30.147Z,116.90
2018-12-05T03:21:34.706Z,127.70
2018-12-05T03:24:39.269Z,130.03
2018-12-05T03:27:43.880Z,133.43
2018-12-05T03:30:48.404Z,131.80
2018-12-05T03:33:52.946Z,129.07
2018-12-05T03:36:57.551Z,127.60
2018-12-05T03:40:02.072Z,129.50
2018-12-05T03:43:06.644Z,126.97
2018-12-05T03:46:11.192Z,138.57
2018-12-05T03:49:15.946Z,120.20
2018-12-05T03:52:20.504Z,119.20
2018-12-05T03:55:25.070Z,128.23
2018-12-05T03:58:29.701Z,121.73
2018-12-05T04:01:34.261Z,116.10
2018-12-05T04:04:38.803Z,104.27
2018-12-05T04:07:43.353Z,101.33
2018-12-05T04:10:47.856Z,105.10
2018-12-05T04:13:52.379Z,108.77
2018-12-05T04:16:56.966Z,112.10
2018-12-05T04:20:01.579Z,111.23
2018-12-05T04:23:06.202Z,119.23
2018-12-05T04:26:10.715Z,132.83
2018-12-05T04:29:15.320Z,126.40
2018-12-05T04:32:20.880Z,125.87
2018-12-05T04:35:25.436Z,134.03
2018-12-05T04:38:30.051Z,147.73
2018-12-05T04:41:34.590Z,146.27
2018-12-05T04:44:39.104Z,148.40
2018-12-05T04:47:43.657Z,122.50
2018-12-05T04:50:48.171Z,137.93
2018-12-05T04:53:52.721Z,143.30
2018-12-05T04:56:57.313Z,147.70
2018-12-05T05:00:01.839Z,151.00
2018-12-05T05:03:06.485Z,158.80
2018-12-05T05:06:11.056Z,159.27
2018-12-05T05:09:15.607Z,190.00
2018-12-05T05:12:20.207Z,162.53
2018-12-05T05:15:24.726Z,246.23
2018-12-05T05:18:29.267Z,176.77
2018-12-05T05:21:33.859Z,128.50
2018-12-05T05:24:38.401Z,138.67
2018-12-05T05:27:45.924Z,119.77
2018-12-05T05:30:49.577Z,110.30
2018-12-05T05:33:54.140Z,109.63
2018-12-05T05:36:58.657Z,99.40
2018-12-05T05:40:03.223Z,101.23
2018-12-05T05:43:07.770Z,97.43
2018-12-05T05:46:12.354Z,97.23
2018-12-05T05:49:16.888Z,95.50
2018-12-05T05:52:21.399Z,103.63
2018-12-05T05:55:25.949Z,100.07
2018-12-05T05:58:30.495Z,97.67
2018-12-05T06:01:34.982Z,87.87
2018-12-05T06:04:39.626Z,98.20
2018-12-05T06:07:44.225Z,93.17
2018-12-05T06:10:48.737Z,95.50
2018-12-05T06:13:53.308Z,87.30
2018-12-05T06:16:57.811Z,89.97
2018-12-05T06:20:02.414Z,89.87
2018-12-05T06:23:06.999Z,111.90
2018-12-05T06:26:11.631Z,110.73
2018-12-05T06:29:16.136Z,112.50
2018-12-05T06:32:20.661Z,106.50
2018-12-05T06:35:25.317Z,100.70
2018-12-05T06:38:29.844Z,93.23
2018-12-05T06:41:34.342Z,99.77
2018-12-05T06:44:38.853Z,89.83
2018-12-05T06:47:43.398Z,86.63
2018-12-05T06:50:48.034Z,91.43
2018-12-05T06:53:52.570Z,86.50
2018-12-05T06:56:57.133Z,82.37
2018-12-05T07:00:01.689Z,72.20
2018-12-05T07:03:06.459Z,72.00
2018-12-05T07:06:10.966Z,59.97
2018-12-05T07:09:15.542Z,55.10
2018-12-05T07:12:20.090Z,56.23
2018-12-05T07:15:24.630Z,45.73
2018-12-05T07:18:29.185Z,49.40
2018-12-05T07:21:33.675Z,41.97
2018-12-05T07:24:38.241Z,38.80
2018-12-05T07:27:42.754Z,33.90
2018-12-05T07:30:47.296Z,33.13
2018-12-05T07:33:52.378Z,29.40
2018-12-05T07:36:56.958Z,38.17
2018-12-05T07:40:01.505Z,33.17
2018-12-05T07:43:06.152Z,43.13
2018-12-05T07:46:10.673Z,33.40
2018-12-05T07:49:15.219Z,33.17
2018-12-05T07:52:19.750Z,25.30
2018-12-05T07:55:24.269Z,27.63
2018-12-05T07:58:28.810Z,27.97
2018-12-05T08:01:33.375Z,30.90
2018-12-05T08:04:37.909Z,28.00
2018-12-05T08:07:42.553Z,30.40
2018-12-05T08:10:47.145Z,29.97
2018-12-05T08:13:51.660Z,26.17
2018-12-05T08:16:56.271Z,25.03
2018-12-05T08:20:00.789Z,29.03
2018-12-05T08:23:05.374Z,24.40
2018-12-05T08:26:09.972Z,23.17
2018-12-05T08:29:14.496Z,24.40
2018-12-05T08:32:20.077Z,26.50
2018-12-05T08:35:24.614Z,23.30
2018-12-05T08:38:30.324Z,22.43
2018-12-05T08:41:34.854Z,24.43
2018-12-05T08:44:39.459Z,24.50
2018-12-05T08:47:44.212Z,22.13
2018-12-05T08:50:49.377Z,16.80
2018-12-05T08:53:54.000Z,19.77
2018-12-05T08:56:58.549Z,16.17
2018-12-05T09:00:03.089Z,16.07
2018-12-05T09:03:09.694Z,19.33
2018-12-05T09:06:14.213Z,21.60
2018-12-05T09:09:18.918Z,19.93
2018-12-05T09:12:23.507Z,20.20
2018-12-05T09:15:28.106Z,24.30
2018-12-05T09:18:33.789Z,21.77
2018-12-05T09:21:38.306Z,21.17
2018-12-05T09:24:42.961Z,19.53
2018-12-05T09:27:47.483Z,21.87
2018-12-05T09:30:52.022Z,23.30
2018-12-05T09:33:57.657Z,23.50
2018-12-05T09:37:02.165Z,21.07
2018-12-05T09:40:07.467Z,17.43
2018-12-05T09:43:13.398Z,21.87
2018-12-05T09:46:17.961Z,19.87
2018-12-05T09:49:22.677Z,23.33
2018-12-05T09:52:27.245Z,21.73
2018-12-05T09:55:31.900Z,14.53
2018-12-05T09:58:36.442Z,17.53
2018-12-05T10:01:41.385Z,13.87
2018-12-05T10:04:45.993Z,16.97
2018-12-05T10:07:50.674Z,19.53
2018-12-05T10:10:55.178Z,12.17
2018-12-05T10:13:59.738Z,13.23
2018-12-05T10:17:04.330Z,12.30
2018-12-05T10:20:09.034Z,15.23
2018-12-05T10:23:13.705Z,13.90
2018-12-05T10:26:18.321Z,23.73
2018-12-05T10:29:22.978Z,12.17
2018-12-05T10:32:27.540Z,11.33
2018-12-05T10:35:32.129Z,15.57
2018-12-05T10:38:36.685Z,12.87
2018-12-05T10:41:41.391Z,14.97
2018-12-05T10:44:46.073Z,13.80
2018-12-05T10:47:50.621Z,15.17
2018-12-05T10:50:55.391Z,15.40
2018-12-05T10:53:59.958Z,11.37
2018-12-05T10:57:04.592Z,11.17
2018-12-05T11:00:13.817Z,11.50
2018-12-05T11:03:23.968Z,12.77
2018-12-05T11:06:33.720Z,8.73
2018-12-05T11:09:43.230Z,9.50
2018-12-05T11:12:52.966Z,12.80
2018-12-05T11:16:05.527Z,10.70
2018-12-05T11:19:15.175Z,12.77
2018-12-05T11:22:24.699Z,11.63
2018-12-05T11:25:29.791Z,10.10
2018-12-05T11:28:34.444Z,11.70
2018-12-05T11:31:38.952Z,12.97
2018-12-05T11:34:43.490Z,11.23
2018-12-05T11:37:48.003Z,11.17
2018-12-05T11:40:52.558Z,11.17
2018-12-05T11:43:57.125Z,9.67
2018-12-05T11:47:01.640Z,16.53
2018-12-05T11:50:06.455Z,11.13
2018-12-05T11:53:10.985Z,12.03
2018-12-05T11:56:15.709Z,13.27
2018-12-05T11:59:20.420Z,8.90
2018-12-05T12:02:24.955Z,16.40
2018-12-05T12:05:31.574Z,10.47
2018-12-05T12:08:36.243Z,16.13
2018-12-05T12:11:40.992Z,13.50
2018-12-05T12:14:45.488Z,17.57
2018-12-05T12:17:50.567Z,14.30
2018-12-05T12:20:55.699Z,13.77
2018-12-05T12:24:00.245Z,23.97
2018-12-05T12:27:04.928Z,18.00
2018-12-05T12:30:15.898Z,11.37
2018-12-05T12:33:17.902Z,13.73
2018-12-05T12:36:22.442Z,11.50
2018-12-05T12:39:26.990Z,9.17
2018-12-05T12:42:31.566Z,14.83
2018-12-05T12:45:36.098Z,9.77
2018-12-05T12:48:40.709Z,8.17
2018-12-05T12:51:45.230Z,11.97
2018-12-05T12:54:54.241Z,7.37
2018-12-05T12:57:58.765Z,7.20
2018-12-05T13:01:03.325Z,10.30
2018-12-05T13:04:07.890Z,8.67
2018-12-05T13:07:12.464Z,10.33
2018-12-05T13:10:17.003Z,12.00
2018-12-05T13:13:22.415Z,12.50
2018-12-05T13:16:26.935Z,10.13
2018-12-05T13:19:31.484Z,14.93
2018-12-05T13:22:36.006Z,11.57
2018-12-05T13:25:41.669Z,12.90
2018-12-05T13:28:46.575Z,10.67
2018-12-05T13:31:51.176Z,11.90
2018-12-05T13:34:55.674Z,10.87
2018-12-05T13:38:00.888Z,13.20
2018-12-05T13:41:05.467Z,19.63
2018-12-05T13:44:10.254Z,18.03
2018-12-05T13:47:14.786Z,15.07
2018-12-05T13:50:19.447Z,19.37
2018-12-05T13:53:24.742Z,17.53
2018-12-05T13:56:29.354Z,12.53
2018-12-05T13:59:33.872Z,18.13
2018-12-05T14:02:38.381Z,13.00
2018-12-05T14:05:41.753Z,14.37
2018-12-05T14:08:47.526Z,18.97
2018-12-05T14:11:52.030Z,19.13
2018-12-05T14:14:57.279Z,13.33
2018-12-05T14:18:03.285Z,10.73
2018-12-05T14:21:08.273Z,11.33
2018-12-05T14:24:12.808Z,10.93
2018-12-05T14:27:17.344Z,11.53
2018-12-05T14:30:22.063Z,11.53
2018-12-05T14:33:26.598Z,13.23
2018-12-05T14:36:31.175Z,15.27
2018-12-05T14:39:35.756Z,12.90
2018-12-05T14:42:40.314Z,11.30
2018-12-05T14:45:44.797Z,19.37
2018-12-05T14:48:49.321Z,19.43
2018-12-05T14:51:53.860Z,29.93
2018-12-05T14:54:58.494Z,20.43
2018-12-05T14:58:03.021Z,28.37
2018-12-05T15:01:07.657Z,13.27
2018-12-05T15:04:12.166Z,19.10
2018-12-05T15:07:16.757Z,18.83
2018-12-05T15:10:21.258Z,14.63
2018-12-05T15:13:25.844Z,17.30
2018-12-05T15:16:30.417Z,17.57
2018-12-05T15:19:34.996Z,16.83
2018-12-05T15:22:39.523Z,14.13
2018-12-05T15:25:44.049Z,17.13
2018-12-05T15:28:48.615Z,15.27
2018-12-05T15:31:53.200Z,11.93
2018-12-05T15:34:57.859Z,18.10
2018-12-05T15:38:02.378Z,17.53
2018-12-05T15:41:06.919Z,17.10
2018-12-05T15:44:11.547Z,13.53
2018-12-05T15:47:16.090Z,24.30
2018-12-05T15:50:20.588Z,13.17
2018-12-05T15:53:25.141Z,13.23
2018-12-05T15:56:29.701Z,12.93
2018-12-05T15:59:34.244Z,9.33
2018-12-05T16:02:38.890Z,10.97
2018-12-05T16:05:43.439Z,15.87
2018-12-05T16:08:48.114Z,11.47
2018-12-05T16:11:52.676Z,10.23
2018-12-05T16:14:57.207Z,11.43
2018-12-05T16:18:01.737Z,12.57
2018-12-05T16:21:06.298Z,13.87
2018-12-05T16:24:10.835Z,9.97
2018-12-05T16:27:15.357Z,16.47
2018-12-05T16:30:21.520Z,16.43
2018-12-05T16:33:26.208Z,15.23
2018-12-05T16:36:30.831Z,13.93
2018-12-05T16:39:35.366Z,13.40
2018-12-05T16:42:39.898Z,19.50
2018-12-05T16:45:45.126Z,13.57
2018-12-05T16:52:07.462Z,14.33
2018-12-05T16:55:12.098Z,15.90
2018-12-05T16:58:16.781Z,15.27
2018-12-05T17:01:21.281Z,28.60
2018-12-05T17:04:25.788Z,30.13
2018-12-05T17:07:30.411Z,22.90
2018-12-05T17:10:35.008Z,15.93
2018-12-05T17:13:42.678Z,18.87
2018-12-05T17:16:47.206Z,15.47
2018-12-05T17:19:51.804Z,15.63
2018-12-05T17:22:56.340Z,18.70
2018-12-05T17:26:00.875Z,28.23
2018-12-05T17:29:05.624Z,42.63
2018-12-05T17:32:10.252Z,91.67
2018-12-05T17:35:14.827Z,33.43
2018-12-05T17:38:19.413Z,22.10
2018-12-05T17:41:23.983Z,22.30
2018-12-05T17:44:28.598Z,17.80
2018-12-05T17:47:33.179Z,19.47
2018-12-05T17:50:37.748Z,20.63
2018-12-05T17:53:42.351Z,19.23
2018-12-05T17:56:46.895Z,18.63
2018-12-05T17:59:51.507Z,22.30
2018-12-05T18:02:57.524Z,19.40
2018-12-05T18:06:02.047Z,13.97
2018-12-05T18:09:08.714Z,26.73
2018-12-05T18:12:13.312Z,19.00
2018-12-05T18:15:17.885Z,18.43
2018-12-05T18:18:22.463Z,25.27
2018-12-05T18:21:27.072Z,14.27
2018-12-05T18:24:31.626Z,14.87
2018-12-05T18:27:36.493Z,15.33
2018-12-05T18:30:41.396Z,15.73
2018-12-05T18:33:46.054Z,13.30
2018-12-05T18:36:50.563Z,19.10
2018-12-05T18:39:55.213Z,14.47
2018-12-05T18:42:59.738Z,18.93
2018-12-05T18:46:04.353Z,18.17
2018-12-05T18:49:09.173Z,19.43
2018-12-05T18:52:13.746Z,13.67
2018-12-05T18:55:18.321Z,18.60
2018-12-05T18:58:23.017Z,16.03
2018-12-05T19:01:27.605Z,18.13
2018-12-05T19:04:32.237Z,17.90
2018-12-05T19:07:36.812Z,17.03
2018-12-05T19:10:41.401Z,24.87
2018-12-05T19:13:51.196Z,19.20
2018-12-05T19:16:55.724Z,17.73
2018-12-05T19:20:01.313Z,25.60
2018-12-05T19:23:07.132Z,20.67
2018-12-05T19:26:11.673Z,17.63
2018-12-05T19:29:16.257Z,17.37
2018-12-05T19:32:20.882Z,16.53
2018-12-05T19:35:25.442Z,17.40
2018-12-05T19:38:30.097Z,17.43
2018-12-05T19:41:35.206Z,14.70
2018-12-05T19:44:39.714Z,16.73
2018-12-05T19:47:44.247Z,17.90
2018-12-05T19:50:48.877Z,21.40
2018-12-05T19:53:53.366Z,15.03
2018-12-05T19:56:58.187Z,17.00
2018-12-05T20:00:02.698Z,17.87
2018-12-05T20:03:07.396Z,17.83
2018-12-05T20:06:12.280Z,18.77
2018-12-05T20:09:16.866Z,22.53
2018-12-05T20:12:21.640Z,20.20
2018-12-05T20:15:26.198Z,52.40
2018-12-05T20:18:30.786Z,22.13
2018-12-05T20:21:35.306Z,14.47
2018-12-05T20:24:39.901Z,20.50
2018-12-05T20:27:44.423Z,20.97
2018-12-05T20:30:48.981Z,20.40
2018-12-05T20:33:53.525Z,41.67
2018-12-05T20:36:58.070Z,23.77
2018-12-05T20:40:02.624Z,32.67
2018-12-05T20:43:08.175Z,29.77
2018-12-05T20:46:12.746Z,16.17
2018-12-05T20:49:17.277Z,14.57
2018-12-05T20:52:21.784Z,20.80
2018-12-05T20:55:26.454Z,16.87
2018-12-05T20:58:31.029Z,13.60
2018-12-05T21:01:35.595Z,12.70
2018-12-05T21:04:41.398Z,14.80
2018-12-05T21:07:46.039Z,15.13
2018-12-05T21:10:50.629Z,16.97
2018-12-05T21:13:55.133Z,14.73
2018-12-05T21:16:59.754Z,16.87
2018-12-05T21:20:04.533Z,16.03
2018-12-05T21:23:09.175Z,17.77
2018-12-05T21:26:13.703Z,16.90
2018-12-05T21:29:18.261Z,18.73
2018-12-05T21:32:22.955Z,14.90
2018-12-05T21:35:27.576Z,14.90
2018-12-05T21:38:32.065Z,16.27
2018-12-05T21:41:36.688Z,16.07
2018-12-05T21:44:41.232Z,15.80
2018-12-05T21:47:45.878Z,12.43
2018-12-05T21:50:50.380Z,19.43
2018-12-05T21:53:54.919Z,16.07
2018-12-05T21:56:59.422Z,13.27
2018-12-05T22:00:04.489Z,14.73
2018-12-05T22:03:11.667Z,12.90
2018-12-05T22:06:16.214Z,17.20
2018-12-05T22:09:20.833Z,12.37
2018-12-05T22:12:25.334Z,18.83
2018-12-05T22:15:29.890Z,20.43
2018-12-05T22:18:34.407Z,14.87
2018-12-05T22:21:38.944Z,14.53
2018-12-05T22:24:43.443Z,14.37
2018-12-05T22:27:47.974Z,16.97
2018-12-05T22:30:52.558Z,34.33
2018-12-05T22:33:57.095Z,15.73
2018-12-05T22:37:01.656Z,23.97
2018-12-05T22:40:07.766Z,13.97
2018-12-05T22:43:12.267Z,15.37
2018-12-05T22:46:16.922Z,15.50
2018-12-05T22:49:21.516Z,16.50
2018-12-05T22:52:26.206Z,16.13
2018-12-05T22:55:30.780Z,14.37
2018-12-05T22:58:35.336Z,15.10
2018-12-05T23:01:39.843Z,13.13
2018-12-05T23:04:44.440Z,18.93
2018-12-05T23:07:49.342Z,21.67
2018-12-05T23:10:53.843Z,17.57
2018-12-05T23:13:58.345Z,14.50
2018-12-05T23:17:02.870Z,14.37
2018-12-05T23:20:08.507Z,14.97
2018-12-05T23:23:13.079Z,18.70
2018-12-05T23:26:17.720Z,17.27
2018-12-05T23:29:22.251Z,14.47
2018-12-05T23:32:26.752Z,15.80
2018-12-05T23:35:31.388Z,14.40
2018-12-05T23:38:35.891Z,18.73
2018-12-05T23:41:40.429Z,20.07
2018-12-05T23:45:01.135Z,13.40
2018-12-05T23:48:11.165Z,17.23
2018-12-05T23:51:15.692Z,17.13
2018-12-05T23:54:20.181Z,14.70
2018-12-05T23:57:24.750Z,14.63
